• Join FlightAware (Why Join?)
  • Login
  • US Flag 
12:24PM EDT


 

Airport Tracker/Info


-or-


 

Live Flight TrackerFlight Track Log ✈ SWA850 ✈ 28-Jul-2014 ✈ KLAX - KOAK

Flight Track Log - Related Links

Times and Time Zones

All times are in EDT time to prevent confusion due to time zone crossing. See the SWA850 flight status page for this flight to view local times or setup timezone preferences in your user account.

Time Position Orientation Groundspeed Altitude Reporting Facility
EDT Latitude Longitude Course Direction KTS MPH feet Rate Location/Type
06:16PM 33.9500 -118.4667 22° Northeast 167 192 1,700  Level Southern California TRACON
06:17PM 33.9422 -118.4953 252° West 185 213 3,100 2,700 Climbing Los Angeles Center
06:18PM 33.9381 -118.5731 266° West 228 262 6,100 2,700 Climbing Los Angeles Center
06:19PM 33.9572 -118.6656 284° West 286 329 8,700 1,380 Climbing Los Angeles Center
06:20PM 34.0275 -118.7092 333° Northwest 286 329 9,000 60 Climbing Los Angeles Center
06:21PM 34.1006 -118.6617 28° Northeast 285 328 8,900 960 Descending Los Angeles Center
06:22PM 34.1596 -118.6202 22° Northeast  Level FlightAware Approximate
06:22PM 34.1714 -118.6267 22° Northeast 284 327 11,000  Level Los Angeles Center
06:23PM 34.2528 -118.6153 North 300 345 14,000 2,700 Climbing Los Angeles Center
06:24PM 34.3367 -118.6281 353° North 303 349 16,700 1,980 Climbing Los Angeles Center
06:25PM 34.4253 -118.6714 338° Northwest 346 398 18,100 1,380 Climbing Los Angeles Center
06:26PM 34.5264 -118.7225 337° Northwest 395 455 19,600 1,920 Climbing Los Angeles Center
06:27PM 34.6558 -118.7867 338° Northwest 419 482 22,100 2,220 Climbing Los Angeles Center
06:28PM 34.7656 -118.8433 337° Northwest 424 488 24,200 1,800 Climbing Los Angeles Center
06:29PM 34.8675 -118.9236 327° Northwest 439 505 25,900 1,500 Climbing Los Angeles Center
06:30PM 34.9728 -119.0261 321° Northwest 446 513 27,300 1,500 Climbing Los Angeles Center
06:31PM 35.0742 -119.1256 321° Northwest 465 535 29,000 1,260 Climbing Los Angeles Center
06:32PM 35.1742 -119.2228 322° Northwest 465 535 30,000 480 Climbing Los Angeles Center
06:33PM 35.2744 -119.3219 321° Northwest 464 534 30,000  Level Los Angeles Center
06:34PM 35.3744 -119.4211 321° Northwest 466 536 30,000 720 Level Los Angeles Center
06:36PM 35.4931 -119.5375 321° Northwest 461 531 31,500 960 Climbing Los Angeles Center
06:37PM 35.5906 -119.6353 321° Northwest 455 524 32,000 240 Climbing Los Angeles Center
06:37PM 35.6672 -119.7125 321° Northwest 457 526 32,000  Level Oakland Center
06:38PM 35.7631 -119.8083 321° Northwest 451 519 32,000  Level Oakland Center
06:39PM 35.8600 -119.9042 321° Northwest 449 517 32,000  Level Oakland Center
06:40PM 35.9567 -120.0022 321° Northwest 451 519 32,000  Level Oakland Center
06:41PM 36.0539 -120.1003 321° Northwest 453 521 32,000  Level Oakland Center
06:42PM 36.1519 -120.1997 321° Northwest 457 526 32,000  Level Oakland Center
06:43PM 36.2500 -120.3014 320° Northwest 460 529 32,000  Level Oakland Center
06:44PM 36.3669 -120.4200 321° Northwest 455 524 32,000  Level Oakland Center
06:46PM 36.4650 -120.5247 319° Northwest 463 533 32,000 -300 Level Oakland Center
06:47PM 36.5644 -120.6253 321° Northwest 463 533 31,400 -1,860 Descending Oakland Center
06:48PM 36.6650 -120.7261 321° Northwest 463 533 28,200 -2,880 Descending Oakland Center
06:49PM 36.7603 -120.8275 320° Northwest 456 525 25,600 -2,520 Descending Oakland Center
06:50PM 36.8428 -120.9317 315° West 428 493 23,100 -2,400 Descending Oakland Center
06:51PM 36.9244 -121.0236 318° Northwest 401 461 20,700 -2,580 Descending Oakland Center
06:52PM 37.0189 -121.1292 318° Northwest 386 444 17,900 -2,400 Descending Oakland Center
06:53PM 37.0919 -121.2178 316° Northwest 370 426 15,800 -2,100 Descending Oakland Center
06:54PM 37.1667 -121.3003 319° Northwest 361 415 13,700 -2,100 Descending Oakland Center
06:55PM 37.2364 -121.3817 317° Northwest 348 400 11,500 -1,740 Descending Oakland Center
06:56PM 37.3028 -121.4589 317° Northwest 325 374 10,200 -1,500 Descending Oakland Center
06:57PM 37.3644 -121.5311 317° Northwest 296 341 8,500 -1,620 Descending Oakland Center
06:58PM 37.4236 -121.5994 317° Northwest 294 338 6,900 -840 Descending Oakland Center
06:59PM 37.4667 -121.7000 298° West 297 342 6,800 -480 Descending Northern Cal TRACON
07:00PM 37.5167 -121.8000 302° West 287 330 6,000 -960 Descending Northern Cal TRACON
07:01PM 37.5500 -121.8833 297° West 281 323 4,900 -1,080 Descending Northern Cal TRACON
07:02PM 37.5833 -121.9667 297° West 260 299 3,900 -1,200 Descending Northern Cal TRACON
07:03PM 37.6000 -122.0500 284° West 251 289 2,500 -840 Descending Northern Cal TRACON
07:04PM 37.6322 -122.1119 303° West 232 267 2,200 -600 Descending Oakland Center
07:05PM 37.6639 -122.1586 311° West 196 226 1,300 -840 Descending Oakland Center
07:06PM 37.6833 -122.2000 301° West 125 144 600 -780 Descending Northern Cal TRACON
07:09PM 37.7167 -122.2167 270° West  Level FlightAware Approximate